Time;durP1;ratioP1;P1;durP2;ratioP2;P2;SDS_P1;SDS_P2;PMS_P1;PMS_P2;Temp;Humidity;BMP_temperature;BMP_pressure;BME280_temperature;BME280_humidity;BME280_pressure;Samples;Min_cycle;Max_cycle;Signal;HPM_P1;HPM_P2
2021/12/19 00:00:21;;;;;;;36.43;8.10;;;;;;;;;;5008259;28;20179;-76
2021/12/19 00:10:57;;;;;;;32.87;8.00;;;;;;;;;;5020892;28;20255;-77
2021/12/19 00:13:25;;;;;;;37.83;8.07;;;;;;;;;;5007794;28;20269;-77
2021/12/19 00:15:50;;;;;;;37.13;8.17;;;;;;;;;;5011932;28;20178;-77
2021/12/19 00:18:15;;;;;;;16.97;6.63;;;;;;;;;;5010751;28;20172;-76
2021/12/19 00:20:41;;;;;;;17.93;7.80;;;;;;;;;;5015016;28;20181;-77
2021/12/19 00:23:06;;;;;;;57.47;9.23;;;;;;;;;;5010150;28;20278;-77
2021/12/19 00:25:31;;;;;;;62.17;9.60;;;;;;;;;;5018139;28;20211;-76
2021/12/19 00:27:56;;;;;;;42.30;8.53;;;;;;;;;;5008153;28;20176;-77
2021/12/19 00:30:21;;;;;;;18.97;6.50;;;;;;;;;;5014282;28;20179;-77
2021/12/19 00:32:47;;;;;;;18.10;7.80;;;;;;;;;;5007013;28;20261;-77
2021/12/19 00:35:12;;;;;;;33.07;7.33;;;;;;;;;;5009429;28;20211;-76
2021/12/19 00:37:37;;;;;;;40.63;7.90;;;;;;;;;;5007282;28;20175;-77
2021/12/19 00:40:03;;;;;;;26.50;8.10;;;;;;;;;;5009211;28;20167;-77
2021/12/19 00:42:30;;;;;;;42.87;7.80;;;;;;;;;;5019110;28;20230;-77
2021/12/19 00:44:57;;;;;;;13.87;6.90;;;;;;;;;;5048196;28;20213;-77
2021/12/19 00:47:23;;;;;;;17.97;7.17;;;;;;;;;;5049041;28;20186;-77
2021/12/19 00:49:48;;;;;;;35.10;7.67;;;;;;;;;;5028842;28;20262;-77
2021/12/19 00:52:13;;;;;;;35.83;8.43;;;;;;;;;;5031372;28;20174;-77
2021/12/19 00:54:38;;;;;;;45.73;8.47;;;;;;;;;;5031298;28;20205;-77
2021/12/19 00:57:03;;;;;;;50.43;7.47;;;;;;;;;;5031569;28;20178;-77
2021/12/19 00:59:29;;;;;;;41.73;7.83;;;;;;;;;;5033630;28;20189;-77
2021/12/19 01:01:54;;;;;;;26.33;5.93;;;;;;;;;;5035134;28;20170;-77
2021/12/19 01:04:20;;;;;;;32.70;6.50;;;;;;;;;;5037541;28;20181;-77
2021/12/19 01:06:45;;;;;;;26.03;6.83;;;;;;;;;;5034073;28;20308;-77
2021/12/19 01:09:11;;;;;;;38.00;6.77;;;;;;;;;;5041619;28;20185;-77
2021/12/19 01:11:37;;;;;;;21.17;6.53;;;;;;;;;;5036280;28;20178;-77
2021/12/19 01:14:03;;;;;;;19.77;6.50;;;;;;;;;;5040279;28;20198;-77
2021/12/19 01:16:28;;;;;;;12.83;5.83;;;;;;;;;;5030880;28;20260;-77
2021/12/19 01:18:53;;;;;;;9.47;6.00;;;;;;;;;;5033621;28;20182;-77
2021/12/19 01:21:19;;;;;;;10.67;6.30;;;;;;;;;;5038619;28;20200;-77
2021/12/19 01:23:44;;;;;;;14.90;6.37;;;;;;;;;;5035616;28;20189;-77
2021/12/19 01:26:10;;;;;;;12.57;6.33;;;;;;;;;;5035195;28;20203;-77
2021/12/19 01:28:35;;;;;;;12.10;6.10;;;;;;;;;;5034756;28;20178;-77
2021/12/19 01:31:00;;;;;;;10.27;5.80;;;;;;;;;;5034251;28;20178;-77
2021/12/19 01:33:26;;;;;;;12.20;6.80;;;;;;;;;;5034307;28;20193;-77
2021/12/19 01:35:51;;;;;;;11.37;6.50;;;;;;;;;;5033766;28;20170;-77
2021/12/19 01:38:17;;;;;;;12.57;6.47;;;;;;;;;;5035001;28;20177;-77
2021/12/19 01:40:42;;;;;;;12.30;6.10;;;;;;;;;;5035091;28;20181;-77
2021/12/19 01:43:07;;;;;;;11.87;6.93;;;;;;;;;;5037304;28;20233;-77
2021/12/19 01:45:34;;;;;;;12.37;6.53;;;;;;;;;;5034865;28;20193;-77
2021/12/19 01:48:00;;;;;;;11.67;5.53;;;;;;;;;;5035315;28;20162;-77
2021/12/19 01:50:26;;;;;;;11.00;5.27;;;;;;;;;;5035727;28;20180;-77
2021/12/19 01:52:52;;;;;;;20.17;5.60;;;;;;;;;;5033099;28;20215;-77
2021/12/19 01:55:17;;;;;;;17.33;6.23;;;;;;;;;;5034714;28;20198;-77
2021/12/19 01:57:43;;;;;;;40.80;6.93;;;;;;;;;;5035008;28;20220;-77
2021/12/19 02:00:16;;;;;;;15.13;6.17;;;;;;;;;;5033349;28;20188;-77
2021/12/19 02:02:42;;;;;;;16.63;6.37;;;;;;;;;;5034055;28;20198;-77
2021/12/19 02:05:07;;;;;;;62.43;7.53;;;;;;;;;;5032052;28;20209;-77
2021/12/19 02:07:32;;;;;;;27.73;7.00;;;;;;;;;;5034332;28;20274;-77
2021/12/19 02:09:57;;;;;;;49.93;6.30;;;;;;;;;;5034594;28;20166;-77
2021/12/19 02:12:23;;;;;;;45.20;6.80;;;;;;;;;;5031634;28;20192;-77
2021/12/19 02:14:48;;;;;;;47.40;6.20;;;;;;;;;;5033104;28;20201;-77
2021/12/19 02:17:13;;;;;;;19.90;4.80;;;;;;;;;;5036242;28;20202;-77
2021/12/19 02:19:40;;;;;;;42.50;6.40;;;;;;;;;;5034347;28;20174;-77
2021/12/19 02:22:05;;;;;;;59.67;6.13;;;;;;;;;;5033530;28;20209;-77
2021/12/19 02:24:31;;;;;;;30.77;6.57;;;;;;;;;;5034427;28;20186;-77
2021/12/19 02:26:56;;;;;;;36.27;6.07;;;;;;;;;;5049964;28;20174;-77
2021/12/19 02:29:22;;;;;;;18.80;5.73;;;;;;;;;;5036648;28;20184;-77
2021/12/19 02:31:47;;;;;;;30.53;6.37;;;;;;;;;;5033594;28;20178;-77
2021/12/19 02:34:23;;;;;;;95.03;8.10;;;;;;;;;;5041594;28;20348;-77
2021/12/19 02:37:00;;;;;;;46.70;7.10;;;;;;;;;;5044777;28;20203;-77
2021/12/19 02:50:14;;;;;;;50.77;6.13;;;;;;;;;;5048259;28;20213;-77
2021/12/19 02:52:39;;;;;;;62.87;5.93;;;;;;;;;;5043316;28;20190;-77
2021/12/19 02:55:06;;;;;;;56.40;6.03;;;;;;;;;;5034295;28;20205;-77
2021/12/19 02:57:31;;;;;;;39.73;4.97;;;;;;;;;;5029474;28;20183;-77
2021/12/19 02:59:56;;;;;;;47.97;4.90;;;;;;;;;;5031126;28;20176;-77
2021/12/19 03:02:22;;;;;;;43.37;5.50;;;;;;;;;;5048905;28;20197;-77
2021/12/19 03:04:57;;;;;;;44.93;5.40;;;;;;;;;;5035085;28;20240;-77
2021/12/19 03:07:24;;;;;;;31.40;3.97;;;;;;;;;;5032698;28;20262;-77
2021/12/19 03:20:13;;;;;;;31.53;4.73;;;;;;;;;;5048192;28;20210;-77
2021/12/19 03:22:38;;;;;;;17.43;3.87;;;;;;;;;;5038012;28;20182;-77
2021/12/19 03:25:04;;;;;;;11.70;4.50;;;;;;;;;;5037903;28;20204;-77
2021/12/19 03:27:29;;;;;;;22.03;4.20;;;;;;;;;;5031927;28;20197;-78
2021/12/19 03:29:54;;;;;;;17.30;4.53;;;;;;;;;;5032286;28;20216;-78
2021/12/19 03:32:19;;;;;;;26.87;4.83;;;;;;;;;;5032668;28;20223;-77
2021/12/19 03:34:45;;;;;;;10.13;3.97;;;;;;;;;;5037988;28;20206;-77
2021/12/19 03:37:10;;;;;;;21.93;3.87;;;;;;;;;;5039598;28;20181;-77
2021/12/19 03:39:47;;;;;;;15.17;4.60;;;;;;;;;;5032849;28;20200;-77
2021/12/19 03:42:13;;;;;;;28.30;4.50;;;;;;;;;;5034103;28;20204;-77
2021/12/19 03:44:39;;;;;;;22.23;4.10;;;;;;;;;;5033189;28;20170;-77
2021/12/19 03:47:04;;;;;;;35.07;4.57;;;;;;;;;;5050494;28;20261;-77
2021/12/19 03:49:29;;;;;;;10.20;4.33;;;;;;;;;;5036364;28;20272;-78
2021/12/19 03:51:54;;;;;;;10.13;3.90;;;;;;;;;;5037017;28;20216;-78
2021/12/19 03:54:20;;;;;;;14.83;3.33;;;;;;;;;;5038185;28;20185;-78
2021/12/19 03:56:45;;;;;;;9.27;3.93;;;;;;;;;;5034402;28;20172;-78
2021/12/19 03:59:10;;;;;;;13.73;4.07;;;;;;;;;;5038559;28;20170;-78
2021/12/19 04:01:35;;;;;;;6.17;4.10;;;;;;;;;;5032310;28;20197;-78
2021/12/19 04:04:01;;;;;;;8.87;3.70;;;;;;;;;;5032453;28;20247;-78
2021/12/19 04:06:26;;;;;;;6.90;3.63;;;;;;;;;;5032523;28;20181;-78
2021/12/19 04:08:52;;;;;;;15.13;3.53;;;;;;;;;;5034674;28;20179;-78
2021/12/19 04:11:18;;;;;;;10.50;4.00;;;;;;;;;;5032383;28;20180;-78
2021/12/19 04:13:43;;;;;;;5.07;3.73;;;;;;;;;;5039947;28;20190;-78
2021/12/19 04:16:08;;;;;;;7.57;3.87;;;;;;;;;;5032472;28;20178;-78
2021/12/19 04:18:33;;;;;;;12.03;3.70;;;;;;;;;;5050664;28;21275;-78
2021/12/19 04:20:59;;;;;;;9.97;4.07;;;;;;;;;;5032840;28;20194;-78
2021/12/19 04:23:24;;;;;;;13.10;3.73;;;;;;;;;;5050472;28;20178;-78
2021/12/19 04:25:51;;;;;;;15.37;3.80;;;;;;;;;;5030227;28;20187;-78
2021/12/19 04:28:16;;;;;;;12.00;3.90;;;;;;;;;;5035392;28;20170;-78
2021/12/19 04:30:42;;;;;;;20.03;4.33;;;;;;;;;;5031892;28;20196;-78
2021/12/19 04:33:10;;;;;;;9.83;4.37;;;;;;;;;;5033409;28;20189;-78
2021/12/19 04:35:38;;;;;;;19.77;4.63;;;;;;;;;;5033355;28;20182;-78
2021/12/19 04:54:24;;;;;;;9.47;4.57;;;;;;;;;;5052317;28;20197;-78
2021/12/19 04:59:48;;;;;;;8.87;4.63;;;;;;;;;;5048432;28;20214;-78
2021/12/19 05:15:28;;;;;;;31.20;4.40;;;;;;;;;;5050551;28;20233;-78
2021/12/19 05:17:56;;;;;;;5.43;2.60;;;;;;;;;;5034982;28;20173;-78
2021/12/19 05:20:26;;;;;;;14.57;3.07;;;;;;;;;;5045638;28;20174;-78
2021/12/19 05:22:55;;;;;;;12.37;3.37;;;;;;;;;;5052935;28;20202;-78
2021/12/19 05:25:20;;;;;;;9.13;3.00;;;;;;;;;;5038342;28;20213;-78
2021/12/19 05:27:48;;;;;;;11.90;3.23;;;;;;;;;;5033975;28;20182;-78
2021/12/19 05:30:14;;;;;;;7.80;3.43;;;;;;;;;;5036958;28;20178;-78
2021/12/19 05:32:40;;;;;;;4.07;3.13;;;;;;;;;;5034589;28;20180;-78
2021/12/19 05:35:06;;;;;;;5.70;3.27;;;;;;;;;;5035138;28;20206;-78
2021/12/19 05:45:43;;;;;;;10.10;2.70;;;;;;;;;;5048467;28;20228;-78
2021/12/19 05:48:08;;;;;;;8.43;2.97;;;;;;;;;;5039387;28;20177;-78
2021/12/19 05:50:33;;;;;;;3.57;2.40;;;;;;;;;;5033875;28;20182;-78
2021/12/19 05:52:59;;;;;;;3.77;2.20;;;;;;;;;;5038992;28;20173;-78
2021/12/19 05:55:24;;;;;;;6.40;3.30;;;;;;;;;;5034360;28;20210;-78
2021/12/19 05:57:49;;;;;;;2.97;2.53;;;;;;;;;;5035640;28;20174;-78
2021/12/19 06:00:16;;;;;;;3.53;2.53;;;;;;;;;;5034839;28;20181;-78
2021/12/19 06:02:41;;;;;;;9.37;2.57;;;;;;;;;;5052165;28;20178;-78
2021/12/19 06:05:07;;;;;;;11.40;2.87;;;;;;;;;;5034747;28;20224;-78
2021/12/19 06:07:33;;;;;;;14.80;2.83;;;;;;;;;;5031312;28;20182;-78
2021/12/19 06:09:59;;;;;;;15.70;2.97;;;;;;;;;;5034506;28;20175;-78
2021/12/19 06:12:24;;;;;;;8.97;2.53;;;;;;;;;;5038793;28;20178;-78
2021/12/19 06:14:49;;;;;;;6.20;2.67;;;;;;;;;;5036396;28;20198;-78
2021/12/19 06:17:15;;;;;;;12.33;2.73;;;;;;;;;;5052128;28;20178;-78
2021/12/19 06:19:40;;;;;;;20.43;3.33;;;;;;;;;;5038860;28;20196;-78
2021/12/19 06:22:06;;;;;;;8.17;2.43;;;;;;;;;;5032774;28;20169;-78
2021/12/19 06:24:32;;;;;;;8.40;3.83;;;;;;;;;;5034330;28;20178;-78
2021/12/19 06:26:58;;;;;;;10.20;2.70;;;;;;;;;;5032040;28;20174;-78
2021/12/19 06:29:23;;;;;;;12.73;2.33;;;;;;;;;;5032287;28;20192;-78
2021/12/19 06:31:49;;;;;;;13.27;2.47;;;;;;;;;;5028780;28;20253;-78
2021/12/19 06:34:14;;;;;;;12.93;2.27;;;;;;;;;;5032501;28;20223;-78
2021/12/19 06:36:41;;;;;;;5.93;2.50;;;;;;;;;;5032549;28;20181;-78
2021/12/19 06:39:06;;;;;;;8.60;4.07;;;;;;;;;;5032608;28;20174;-78
2021/12/19 06:41:31;;;;;;;11.67;2.80;;;;;;;;;;5031158;28;20181;-78
2021/12/19 06:43:56;;;;;;;7.23;2.50;;;;;;;;;;5032891;28;20225;-78
2021/12/19 06:46:21;;;;;;;5.20;2.13;;;;;;;;;;5047486;28;20189;-78
2021/12/19 06:48:47;;;;;;;7.03;2.17;;;;;;;;;;5034361;28;20235;-78
2021/12/19 06:51:12;;;;;;;7.50;2.50;;;;;;;;;;5032776;28;20268;-78
2021/12/19 06:53:37;;;;;;;6.10;2.97;;;;;;;;;;5032803;28;20196;-78
2021/12/19 06:56:03;;;;;;;3.03;1.97;;;;;;;;;;5032888;28;20170;-78
2021/12/19 06:58:28;;;;;;;4.03;2.00;;;;;;;;;;5029693;28;20181;-78
2021/12/19 07:00:53;;;;;;;6.70;3.00;;;;;;;;;;5031391;28;20182;-78
2021/12/19 07:03:23;;;;;;;9.73;2.70;;;;;;;;;;5033090;28;20189;-78
2021/12/19 07:05:48;;;;;;;9.87;2.50;;;;;;;;;;5034969;28;20222;-78
2021/12/19 07:08:13;;;;;;;6.40;2.30;;;;;;;;;;5035145;28;20170;-78
2021/12/19 07:10:39;;;;;;;5.17;2.00;;;;;;;;;;5031603;28;20176;-78
2021/12/19 07:13:04;;;;;;;20.07;2.40;;;;;;;;;;5034600;28;20173;-78
2021/12/19 07:15:29;;;;;;;7.10;2.30;;;;;;;;;;5038269;28;20311;-78
2021/12/19 07:17:55;;;;;;;15.43;2.50;;;;;;;;;;5031478;28;20193;-78
2021/12/19 07:20:21;;;;;;;17.73;3.43;;;;;;;;;;5051020;28;20178;-78
2021/12/19 07:22:46;;;;;;;34.17;4.23;;;;;;;;;;5031102;28;20184;-78
2021/12/19 07:25:11;;;;;;;13.30;3.97;;;;;;;;;;5050075;28;20328;-78
2021/12/19 07:27:37;;;;;;;14.40;2.90;;;;;;;;;;5031031;28;20182;-78
2021/12/19 07:30:04;;;;;;;14.93;2.60;;;;;;;;;;5025872;28;20258;-78
2021/12/19 07:32:30;;;;;;;11.20;3.03;;;;;;;;;;5022641;28;20276;-78
2021/12/19 07:34:55;;;;;;;34.63;3.00;;;;;;;;;;5039075;28;20351;-78
2021/12/19 07:37:21;;;;;;;9.40;2.03;;;;;;;;;;5033487;28;20265;-78
2021/12/19 07:39:57;;;;;;;7.37;2.47;;;;;;;;;;5029526;28;20456;-79
2021/12/19 07:42:22;;;;;;;9.37;2.47;;;;;;;;;;5039193;28;20202;-78
2021/12/19 07:44:48;;;;;;;34.07;3.23;;;;;;;;;;5036246;28;20196;-78
2021/12/19 07:47:14;;;;;;;50.67;4.00;;;;;;;;;;5033680;28;20182;-78
2021/12/19 07:49:39;;;;;;;20.60;2.90;;;;;;;;;;5031298;28;20178;-78
2021/12/19 07:52:04;;;;;;;15.23;2.80;;;;;;;;;;5032238;28;20204;-78
2021/12/19 07:54:30;;;;;;;14.73;3.10;;;;;;;;;;5042256;28;20242;-78
2021/12/19 07:56:55;;;;;;;11.93;2.27;;;;;;;;;;5032089;28;20185;-78
2021/12/19 07:59:20;;;;;;;23.57;3.10;;;;;;;;;;5042284;28;20186;-78
2021/12/19 08:01:46;;;;;;;24.43;3.07;;;;;;;;;;5031819;28;20220;-78
2021/12/19 08:04:11;;;;;;;5.33;2.10;;;;;;;;;;5032394;28;20182;-78
2021/12/19 08:06:39;;;;;;;13.10;2.80;;;;;;;;;;5027760;28;20276;-78
2021/12/19 08:09:09;;;;;;;23.30;2.53;;;;;;;;;;5036652;28;20191;-78
2021/12/19 08:11:42;;;;;;;41.43;3.90;;;;;;;;;;5031950;28;20209;-78
2021/12/19 08:14:09;;;;;;;26.60;3.30;;;;;;;;;;5032732;28;20198;-78
2021/12/19 08:16:35;;;;;;;28.70;3.07;;;;;;;;;;5032621;28;20178;-78
2021/12/19 08:19:00;;;;;;;27.50;3.03;;;;;;;;;;5031079;28;20196;-78
2021/12/19 08:21:26;;;;;;;12.93;2.00;;;;;;;;;;5034213;28;20197;-78
2021/12/19 08:23:51;;;;;;;20.77;2.57;;;;;;;;;;5042100;28;20257;-78
2021/12/19 08:26:16;;;;;;;18.23;2.70;;;;;;;;;;5036349;28;20180;-78
2021/12/19 08:28:42;;;;;;;18.27;2.10;;;;;;;;;;5051881;28;20238;-78
2021/12/19 08:31:07;;;;;;;17.57;3.10;;;;;;;;;;5036155;28;20235;-78
2021/12/19 08:33:32;;;;;;;16.50;4.83;;;;;;;;;;5035593;28;20185;-78
2021/12/19 08:35:59;;;;;;;18.47;7.03;;;;;;;;;;5035479;28;20228;-78
2021/12/19 08:38:24;;;;;;;21.50;5.20;;;;;;;;;;5040583;28;20302;-78
2021/12/19 08:40:51;;;;;;;26.03;5.17;;;;;;;;;;5036345;28;20210;-78
2021/12/19 08:43:16;;;;;;;18.73;5.80;;;;;;;;;;5052374;28;20226;-78
2021/12/19 08:45:42;;;;;;;28.17;5.87;;;;;;;;;;5034168;28;20177;-78
2021/12/19 08:48:07;;;;;;;26.33;4.10;;;;;;;;;;5034574;28;20295;-78
2021/12/19 08:50:32;;;;;;;7.03;2.87;;;;;;;;;;5052690;28;20174;-78
2021/12/19 08:52:57;;;;;;;4.67;2.47;;;;;;;;;;5035838;28;20436;-78
2021/12/19 08:55:23;;;;;;;19.83;3.57;;;;;;;;;;5033997;28;20363;-78
2021/12/19 08:57:48;;;;;;;8.50;2.40;;;;;;;;;;5033894;28;20221;-78
2021/12/19 09:00:13;;;;;;;12.87;2.87;;;;;;;;;;5034276;28;20190;-78
2021/12/19 09:02:41;;;;;;;15.83;3.60;;;;;;;;;;5036583;28;20174;-78
2021/12/19 09:05:06;;;;;;;7.90;4.37;;;;;;;;;;5032995;28;20237;-78
2021/12/19 09:07:32;;;;;;;21.70;8.37;;;;;;;;;;5034349;28;20186;-78
2021/12/19 09:09:57;;;;;;;19.67;2.97;;;;;;;;;;5033293;28;20190;-78
2021/12/19 09:12:22;;;;;;;7.47;2.40;;;;;;;;;;5031452;28;20209;-78
2021/12/19 09:14:47;;;;;;;8.80;2.30;;;;;;;;;;5037851;28;20418;-78
2021/12/19 09:17:13;;;;;;;22.77;3.10;;;;;;;;;;5034410;28;20174;-78
2021/12/19 09:19:38;;;;;;;14.10;2.60;;;;;;;;;;5033476;28;20239;-78
2021/12/19 09:22:04;;;;;;;21.50;2.77;;;;;;;;;;5022061;28;20181;-78
2021/12/19 09:24:29;;;;;;;15.83;2.20;;;;;;;;;;5039358;28;20262;-78
2021/12/19 09:26:54;;;;;;;3.87;2.10;;;;;;;;;;5030166;28;20589;-78
2021/12/19 09:29:19;;;;;;;7.73;2.50;;;;;;;;;;5026706;28;20317;-78
2021/12/19 09:31:45;;;;;;;5.43;2.27;;;;;;;;;;5027192;28;20174;-78
2021/12/19 09:34:10;;;;;;;24.37;2.83;;;;;;;;;;5024960;28;20206;-77
2021/12/19 09:36:35;;;;;;;6.70;2.50;;;;;;;;;;5032340;28;20201;-78
2021/12/19 09:39:01;;;;;;;16.57;2.90;;;;;;;;;;5035215;28;20170;-78
2021/12/19 09:41:29;;;;;;;7.87;2.33;;;;;;;;;;5048169;28;20177;-78
2021/12/19 09:43:59;;;;;;;3.50;2.37;;;;;;;;;;5026853;28;20457;-78
2021/12/19 09:46:28;;;;;;;11.80;4.93;;;;;;;;;;5024083;28;20300;-78
2021/12/19 09:48:53;;;;;;;35.10;3.40;;;;;;;;;;5026659;28;20189;-78
2021/12/19 09:51:19;;;;;;;6.83;2.40;;;;;;;;;;5030720;28;20269;-77
2021/12/19 09:53:44;;;;;;;4.87;2.93;;;;;;;;;;5025879;28;20209;-78
2021/12/19 09:56:10;;;;;;;9.17;2.80;;;;;;;;;;5036332;28;20228;-78
2021/12/19 09:58:36;;;;;;;38.87;4.37;;;;;;;;;;5029850;28;20185;-78
2021/12/19 10:01:03;;;;;;;20.83;3.17;;;;;;;;;;5024187;28;20198;-78
2021/12/19 10:03:28;;;;;;;36.17;4.47;;;;;;;;;;5027945;28;20213;-78
2021/12/19 10:06:12;;;;;;;32.87;3.33;;;;;;;;;;5031029;28;20220;-78
2021/12/19 10:08:38;;;;;;;72.33;17.70;;;;;;;;;;5032384;28;20174;-78
2021/12/19 10:11:12;;;;;;;20.87;3.47;;;;;;;;;;5028129;28;20178;-78
2021/12/19 10:13:37;;;;;;;14.20;2.20;;;;;;;;;;5026011;28;20174;-78
2021/12/19 10:16:26;;;;;;;23.80;2.97;;;;;;;;;;5029187;28;20212;-78
2021/12/19 10:18:52;;;;;;;12.20;1.63;;;;;;;;;;5025929;28;20184;-78
2021/12/19 10:21:19;;;;;;;8.10;2.00;;;;;;;;;;5051035;28;20170;-78
2021/12/19 10:23:45;;;;;;;14.97;2.60;;;;;;;;;;5042484;28;20264;-78
2021/12/19 10:26:11;;;;;;;25.60;3.00;;;;;;;;;;5028395;28;20293;-78
2021/12/19 10:28:51;;;;;;;24.90;3.43;;;;;;;;;;5036263;28;20396;-77
2021/12/19 10:31:16;;;;;;;10.07;2.30;;;;;;;;;;5033008;28;20182;-77
2021/12/19 10:33:41;;;;;;;31.10;3.70;;;;;;;;;;5024967;28;20218;-77
2021/12/19 10:36:07;;;;;;;7.30;2.17;;;;;;;;;;5024929;28;20182;-77
2021/12/19 10:38:34;;;;;;;11.10;2.80;;;;;;;;;;5025331;28;20280;-77
2021/12/19 10:41:10;;;;;;;9.27;2.97;;;;;;;;;;5027308;28;20181;-77
2021/12/19 10:43:41;;;;;;;6.40;2.40;;;;;;;;;;5041064;28;20221;-77
2021/12/19 10:46:09;;;;;;;14.90;2.70;;;;;;;;;;5024697;28;20245;-77
2021/12/19 10:48:37;;;;;;;8.47;2.87;;;;;;;;;;5024809;28;20339;-76
2021/12/19 10:51:02;;;;;;;3.77;2.50;;;;;;;;;;5024949;28;20174;-76
2021/12/19 10:53:35;;;;;;;13.83;3.60;;;;;;;;;;5027834;28;20186;-76
2021/12/19 10:56:01;;;;;;;15.90;3.87;;;;;;;;;;5026340;28;20178;-76
2021/12/19 10:58:50;;;;;;;7.53;2.43;;;;;;;;;;5024733;28;20177;-76
2021/12/19 11:01:19;;;;;;;33.33;4.20;;;;;;;;;;5016944;28;20197;-76
2021/12/19 11:03:46;;;;;;;15.37;2.80;;;;;;;;;;5032320;28;20190;-77
2021/12/19 11:06:15;;;;;;;19.50;2.77;;;;;;;;;;5026211;28;20181;-76
2021/12/19 11:08:43;;;;;;;20.10;3.47;;;;;;;;;;5041126;28;20212;-76
2021/12/19 11:11:08;;;;;;;27.10;3.83;;;;;;;;;;5022650;28;20182;-76
2021/12/19 11:13:34;;;;;;;11.10;5.07;;;;;;;;;;5021898;28;20228;-77
2021/12/19 11:15:59;;;;;;;5.13;2.50;;;;;;;;;;5022895;28;20251;-76
2021/12/19 11:18:25;;;;;;;4.63;3.40;;;;;;;;;;5022669;28;20178;-77
2021/12/19 11:20:50;;;;;;;15.67;3.83;;;;;;;;;;5019666;28;20196;-77
2021/12/19 11:23:15;;;;;;;13.63;3.33;;;;;;;;;;5022887;28;20543;-77
2021/12/19 11:25:42;;;;;;;9.33;4.03;;;;;;;;;;5023451;28;20178;-77
2021/12/19 11:28:07;;;;;;;12.73;3.27;;;;;;;;;;5024450;28;20182;-77
2021/12/19 11:30:33;;;;;;;12.10;3.17;;;;;;;;;;5028451;28;20231;-77
2021/12/19 11:33:05;;;;;;;6.40;3.43;;;;;;;;;;5023802;28;20465;-77
2021/12/19 11:35:33;;;;;;;9.03;5.70;;;;;;;;;;5022512;28;20282;-77
2021/12/19 11:38:00;;;;;;;9.70;4.93;;;;;;;;;;5028407;28;20187;-75
2021/12/19 11:40:30;;;;;;;11.30;4.20;;;;;;;;;;5019893;28;20228;-76
2021/12/19 11:43:03;;;;;;;11.73;3.57;;;;;;;;;;5016674;28;21358;-76
2021/12/19 11:45:39;;;;;;;5.27;2.13;;;;;;;;;;4999319;28;20192;-76
2021/12/19 11:48:16;;;;;;;7.80;2.87;;;;;;;;;;5002756;28;20187;-76
2021/12/19 11:50:53;;;;;;;6.80;2.53;;;;;;;;;;5000032;28;20187;-77
2021/12/19 11:53:18;;;;;;;30.10;4.50;;;;;;;;;;5003024;28;20265;-76
2021/12/19 11:55:44;;;;;;;12.00;3.27;;;;;;;;;;5005914;28;20302;-77
2021/12/19 11:58:11;;;;;;;21.27;4.00;;;;;;;;;;5004505;28;20492;-77
2021/12/19 12:00:44;;;;;;;36.53;4.70;;;;;;;;;;5002952;28;20207;-76
2021/12/19 12:03:12;;;;;;;17.60;4.30;;;;;;;;;;4999052;28;20310;-76
2021/12/19 12:05:44;;;;;;;34.53;4.67;;;;;;;;;;4999713;28;20268;-76
2021/12/19 12:08:11;;;;;;;11.33;3.70;;;;;;;;;;5006838;28;20175;-77
2021/12/19 12:10:53;;;;;;;29.87;4.00;;;;;;;;;;4999927;28;20215;-76
2021/12/19 12:13:22;;;;;;;15.00;3.73;;;;;;;;;;5008513;28;20233;-76
2021/12/19 12:15:52;;;;;;;29.17;4.03;;;;;;;;;;5000574;28;20207;-77
2021/12/19 12:18:28;;;;;;;18.20;5.17;;;;;;;;;;5002610;28;20187;-76
2021/12/19 12:20:53;;;;;;;36.63;5.33;;;;;;;;;;5002381;28;20179;-77
2021/12/19 12:23:24;;;;;;;16.17;4.70;;;;;;;;;;5001480;28;20176;-76
2021/12/19 12:25:49;;;;;;;15.83;5.50;;;;;;;;;;5003281;28;20210;-76
2021/12/19 12:28:17;;;;;;;14.20;4.27;;;;;;;;;;5000636;28;20215;-76
2021/12/19 12:30:48;;;;;;;13.57;4.90;;;;;;;;;;5004860;28;20249;-76
2021/12/19 12:33:15;;;;;;;12.43;4.13;;;;;;;;;;5001299;28;20218;-76
2021/12/19 12:35:41;;;;;;;9.27;4.43;;;;;;;;;;4999603;28;20214;-76
2021/12/19 12:38:07;;;;;;;15.43;4.43;;;;;;;;;;5004065;28;20183;-76
2021/12/19 12:40:52;;;;;;;14.40;6.23;;;;;;;;;;5002120;28;20184;-75
2021/12/19 12:43:19;;;;;;;15.60;8.47;;;;;;;;;;5017414;28;20253;-75
2021/12/19 12:45:56;;;;;;;6.70;4.33;;;;;;;;;;5028449;28;20660;-76
2021/12/19 12:48:40;;;;;;;11.80;3.70;;;;;;;;;;5030378;28;21518;-76
2021/12/19 12:51:07;;;;;;;7.67;3.63;;;;;;;;;;5032491;28;20196;-76
2021/12/19 12:53:34;;;;;;;6.37;2.77;;;;;;;;;;5024520;28;20178;-76
2021/12/19 12:56:06;;;;;;;5.57;3.10;;;;;;;;;;5024096;28;20181;-76
2021/12/19 12:58:42;;;;;;;6.73;3.67;;;;;;;;;;5024969;28;20205;-75
2021/12/19 13:01:12;;;;;;;6.53;3.70;;;;;;;;;;5027108;28;20181;-76
2021/12/19 13:03:37;;;;;;;9.00;4.47;;;;;;;;;;5046629;28;20185;-76
2021/12/19 13:06:02;;;;;;;16.23;8.00;;;;;;;;;;5025956;28;20178;-76
2021/12/19 13:08:28;;;;;;;6.40;3.93;;;;;;;;;;5026914;28;20178;-75
2021/12/19 13:10:54;;;;;;;3.30;2.40;;;;;;;;;;5028601;28;20261;-75
2021/12/19 13:13:24;;;;;;;16.00;3.70;;;;;;;;;;5027339;28;20201;-76
2021/12/19 13:15:49;;;;;;;12.07;4.93;;;;;;;;;;5027318;28;20293;-75
2021/12/19 13:18:14;;;;;;;8.63;3.50;;;;;;;;;;5043935;28;20284;-75
2021/12/19 13:20:40;;;;;;;8.07;3.60;;;;;;;;;;5029826;28;20178;-76
2021/12/19 13:23:05;;;;;;;16.00;3.70;;;;;;;;;;5022001;28;20173;-75
2021/12/19 13:25:40;;;;;;;23.47;3.70;;;;;;;;;;5025621;28;20189;-76
2021/12/19 13:28:12;;;;;;;22.83;4.70;;;;;;;;;;5027725;28;20181;-76
2021/12/19 13:30:39;;;;;;;9.23;3.27;;;;;;;;;;5024945;28;20182;-76
2021/12/19 13:33:07;;;;;;;9.20;3.50;;;;;;;;;;5034852;28;20183;-75
2021/12/19 13:35:36;;;;;;;23.83;4.13;;;;;;;;;;5036220;28;20213;-76
2021/12/19 13:38:06;;;;;;;14.93;2.77;;;;;;;;;;5032682;28;20204;-76
2021/12/19 13:40:33;;;;;;;9.37;4.57;;;;;;;;;;5026400;28;20178;-75
2021/12/19 13:43:00;;;;;;;13.10;2.70;;;;;;;;;;5041980;28;20231;-76
2021/12/19 13:45:28;;;;;;;5.23;2.53;;;;;;;;;;5045452;28;20178;-76
2021/12/19 13:47:54;;;;;;;6.10;2.50;;;;;;;;;;5049239;28;20186;-75
2021/12/19 13:50:19;;;;;;;7.77;2.67;;;;;;;;;;5045356;28;20276;-75
2021/12/19 13:52:45;;;;;;;5.83;2.70;;;;;;;;;;5042814;28;20274;-75
2021/12/19 13:55:11;;;;;;;7.17;2.30;;;;;;;;;;5023698;28;20304;-75
2021/12/19 13:57:37;;;;;;;7.03;2.67;;;;;;;;;;5028529;28;20178;-75
2021/12/19 14:00:03;;;;;;;5.60;2.80;;;;;;;;;;5024673;28;20219;-75
2021/12/19 14:02:34;;;;;;;4.37;2.37;;;;;;;;;;5025190;28;20204;-76
2021/12/19 14:04:59;;;;;;;10.40;5.40;;;;;;;;;;5037769;28;20178;-75
2021/12/19 14:07:28;;;;;;;15.63;9.10;;;;;;;;;;5027890;28;20185;-76
2021/12/19 14:09:57;;;;;;;9.73;3.10;;;;;;;;;;5042039;28;20247;-75
2021/12/19 14:15:11;;;;;;;8.70;4.37;;;;;;;;;;5040977;28;20252;-75
2021/12/19 14:17:36;;;;;;;4.23;2.07;;;;;;;;;;5034493;28;20216;-75
2021/12/19 14:20:03;;;;;;;2.50;2.00;;;;;;;;;;5042794;28;20206;-75
2021/12/19 14:22:28;;;;;;;2.40;1.70;;;;;;;;;;5043073;28;20174;-75
2021/12/19 14:24:54;;;;;;;6.03;1.70;;;;;;;;;;5025477;28;20189;-76
2021/12/19 14:27:25;;;;;;;2.17;2.00;;;;;;;;;;5027549;28;20186;-75
2021/12/19 14:29:59;;;;;;;13.00;2.20;;;;;;;;;;5045319;28;20187;-76
2021/12/19 14:32:32;;;;;;;7.60;3.00;;;;;;;;;;5028748;28;20188;-75
2021/12/19 14:34:58;;;;;;;5.23;3.53;;;;;;;;;;5025450;28;20263;-76
2021/12/19 14:37:23;;;;;;;17.73;3.10;;;;;;;;;;5043137;28;20174;-75
2021/12/19 14:39:58;;;;;;;17.90;3.27;;;;;;;;;;5045388;28;20213;-75
2021/12/19 14:42:28;;;;;;;6.70;2.47;;;;;;;;;;5025495;28;20193;-75
2021/12/19 14:44:54;;;;;;;5.77;2.40;;;;;;;;;;5021366;28;20253;-76
2021/12/19 14:47:33;;;;;;;11.53;2.70;;;;;;;;;;5025622;28;20193;-75
2021/12/19 14:50:08;;;;;;;13.37;3.53;;;;;;;;;;5027937;28;20246;-75
2021/12/19 14:52:33;;;;;;;23.67;3.27;;;;;;;;;;5029044;28;20184;-75
2021/12/19 14:55:11;;;;;;;6.20;2.97;;;;;;;;;;5027409;28;20205;-75
2021/12/19 14:57:36;;;;;;;54.63;4.60;;;;;;;;;;5036842;28;20177;-76
2021/12/19 15:00:03;;;;;;;20.20;8.87;;;;;;;;;;5032321;28;20181;-76
2021/12/19 15:02:29;;;;;;;18.07;3.57;;;;;;;;;;5029468;28;20182;-76
2021/12/19 15:04:55;;;;;;;26.10;4.43;;;;;;;;;;5033201;28;20185;-75
2021/12/19 15:07:24;;;;;;;40.30;4.63;;;;;;;;;;5033529;28;20228;-76
2021/12/19 15:09:49;;;;;;;21.47;4.37;;;;;;;;;;5025570;28;20201;-75
2021/12/19 15:12:14;;;;;;;73.53;6.00;;;;;;;;;;5029743;28;20209;-75
2021/12/19 15:14:40;;;;;;;23.40;4.03;;;;;;;;;;5023688;28;20197;-76
2021/12/19 15:17:05;;;;;;;22.00;4.57;;;;;;;;;;5033499;28;20183;-75
2021/12/19 15:19:30;;;;;;;10.93;3.27;;;;;;;;;;5028447;28;20167;-77
2021/12/19 15:21:55;;;;;;;11.13;3.50;;;;;;;;;;5029037;28;20258;-75
2021/12/19 15:24:21;;;;;;;6.50;2.97;;;;;;;;;;5017695;28;20170;-75
2021/12/19 15:26:46;;;;;;;5.97;2.50;;;;;;;;;;5020351;28;20201;-75
2021/12/19 15:29:11;;;;;;;5.67;2.60;;;;;;;;;;5030174;28;20262;-75
2021/12/19 15:31:38;;;;;;;5.07;2.00;;;;;;;;;;5025329;28;20181;-75
2021/12/19 15:34:03;;;;;;;3.37;2.73;;;;;;;;;;5045598;28;20288;-75
2021/12/19 15:36:28;;;;;;;4.83;2.90;;;;;;;;;;5027828;28;20242;-75
2021/12/19 15:38:53;;;;;;;3.13;2.83;;;;;;;;;;5027084;28;20341;-75
2021/12/19 15:41:19;;;;;;;6.50;2.90;;;;;;;;;;5027715;28;20169;-75
2021/12/19 15:43:44;;;;;;;12.90;2.87;;;;;;;;;;5007753;28;20219;-75